Accueil
METAR-TAF:

METAR-TAF

Aéroports :

P11-b, Pays-Bas

Plate-forme pétrolière

latitude: 52-21-36N, longitude: 3-20-30E, altitude: 24 m

Observation

Le bulletin a été fait il y a 35 minutes, à 08:25 UTC
Vent 9 kt de ouest, variant entre sud/sud-ouest et nord/nord-ouest
Température 7°C
Humidité 66%
Pression 1017 hPa
Visibilité 10 km ou plus
Quelques nuages à une hauteur de 2100 ft
Nuages épars à une hauteur de 2900 ft

METAR: EHPG 270825Z AUTO 28009KT 200V330 9999 FEW021 SCT029 07/01 Q1017

Heure: 11:00 (09:00 UTC)


TAF: absent

Observations et prévisions météorologiques de plus de 4000 aéroports (messages METAR et TAF).

Les stations disponibles sont représentées par des disques jaunes et rouges sur la carte.

Passer la souris dessus pour voir le nom de la station.

Cliquer dessus pour voir les observations et prévisions météorologiques.

Pour changer de carte: cliquez sur les boutons verts avec une croix noire pour zoomer, sur le bouton vert avec un tiret pour effectuer un zoom arrière, ou sur les flèches vertes pour les cartes adjacentes.


METAR-TAF: